sensor_id;sensor_type;location;lat;lon;timestamp;P1;P2;P0
64229;PMS5003;50547;49.498;0.092;2023-08-30T00:00:46;10;10;
64229;PMS5003;50547;49.498;0.092;2023-08-30T00:03:15;10;10;
64229;PMS5003;50547;49.498;0.092;2023-08-30T00:05:44;10;10;
64229;PMS5003;50547;49.498;0.092;2023-08-30T00:08:14;10;10;
64229;PMS5003;50547;49.498;0.092;2023-08-30T00:10:43;10;10;
64229;PMS5003;50547;49.498;0.092;2023-08-30T00:13:12;10;10;
64229;PMS5003;50547;49.498;0.092;2023-08-30T00:15:41;10;10;
64229;PMS5003;50547;49.498;0.092;2023-08-30T00:18:10;10;10;
64229;PMS5003;50547;49.498;0.092;2023-08-30T00:20:39;10;10;
64229;PMS5003;50547;49.498;0.092;2023-08-30T00:23:09;10;10;
64229;PMS5003;50547;49.498;0.092;2023-08-30T00:25:38;10;10;
64229;PMS5003;50547;49.498;0.092;2023-08-30T00:28:07;10;10;
64229;PMS5003;50547;49.498;0.092;2023-08-30T00:30:36;8;8;
64229;PMS5003;50547;49.498;0.092;2023-08-30T00:33:05;10;10;
64229;PMS5003;50547;49.498;0.092;2023-08-30T00:35:34;9;9;
64229;PMS5003;50547;49.498;0.092;2023-08-30T00:38:03;10;10;
64229;PMS5003;50547;49.498;0.092;2023-08-30T00:40:37;10;10;
64229;PMS5003;50547;49.498;0.092;2023-08-30T00:43:07;10;10;
64229;PMS5003;50547;49.498;0.092;2023-08-30T00:45:37;10;10;
64229;PMS5003;50547;49.498;0.092;2023-08-30T00:48:08;10;10;
64229;PMS5003;50547;49.498;0.092;2023-08-30T00:50:37;10;10;
64229;PMS5003;50547;49.498;0.092;2023-08-30T00:53:08;10;10;
64229;PMS5003;50547;49.498;0.092;2023-08-30T00:55:39;10;10;
64229;PMS5003;50547;49.498;0.092;2023-08-30T00:58:11;11;11;
64229;PMS5003;50547;49.498;0.092;2023-08-30T01:00:40;11;11;
64229;PMS5003;50547;49.498;0.092;2023-08-30T01:03:10;10;10;
64229;PMS5003;50547;49.498;0.092;2023-08-30T01:05:39;11;11;
64229;PMS5003;50547;49.498;0.092;2023-08-30T01:08:08;11;11;
64229;PMS5003;50547;49.498;0.092;2023-08-30T01:10:41;11;11;
64229;PMS5003;50547;49.498;0.092;2023-08-30T01:13:18;11;11;
64229;PMS5003;50547;49.498;0.092;2023-08-30T01:15:49;11;11;
64229;PMS5003;50547;49.498;0.092;2023-08-30T01:18:22;11;11;
64229;PMS5003;50547;49.498;0.092;2023-08-30T01:20:57;10;10;
64229;PMS5003;50547;49.498;0.092;2023-08-30T01:23:31;11;11;
64229;PMS5003;50547;49.498;0.092;2023-08-30T01:26:09;10;10;
64229;PMS5003;50547;49.498;0.092;2023-08-30T01:28:42;10;10;
64229;PMS5003;50547;49.498;0.092;2023-08-30T01:31:13;10;10;
64229;PMS5003;50547;49.498;0.092;2023-08-30T01:33:44;10;10;
64229;PMS5003;50547;49.498;0.092;2023-08-30T01:36:14;9;9;
64229;PMS5003;50547;49.498;0.092;2023-08-30T01:38:44;9;9;
64229;PMS5003;50547;49.498;0.092;2023-08-30T01:41:14;8;8;
64229;PMS5003;50547;49.498;0.092;2023-08-30T01:43:44;8;8;
64229;PMS5003;50547;49.498;0.092;2023-08-30T01:46:14;5;5;
64229;PMS5003;50547;49.498;0.092;2023-08-30T01:48:45;7;7;
64229;PMS5003;50547;49.498;0.092;2023-08-30T01:51:15;3;3;
64229;PMS5003;50547;49.498;0.092;2023-08-30T01:53:45;4;4;
64229;PMS5003;50547;49.498;0.092;2023-08-30T01:56:15;3;3;
64229;PMS5003;50547;49.498;0.092;2023-08-30T01:58:45;3;3;
64229;PMS5003;50547;49.498;0.092;2023-08-30T02:01:14;3;3;
64229;PMS5003;50547;49.498;0.092;2023-08-30T02:03:44;4;4;
64229;PMS5003;50547;49.498;0.092;2023-08-30T02:06:14;4;4;
64229;PMS5003;50547;49.498;0.092;2023-08-30T02:08:49;4;4;
64229;PMS5003;50547;49.498;0.092;2023-08-30T02:11:26;4;4;
64229;PMS5003;50547;49.498;0.092;2023-08-30T02:13:57;3;3;
64229;PMS5003;50547;49.498;0.092;2023-08-30T02:16:28;2;2;
64229;PMS5003;50547;49.498;0.092;2023-08-30T02:18:58;2;2;
64229;PMS5003;50547;49.498;0.092;2023-08-30T02:21:28;3;3;
64229;PMS5003;50547;49.498;0.092;2023-08-30T02:23:57;2;2;
64229;PMS5003;50547;49.498;0.092;2023-08-30T02:26:26;2;2;
64229;PMS5003;50547;49.498;0.092;2023-08-30T02:28:55;2;2;
64229;PMS5003;50547;49.498;0.092;2023-08-30T02:31:24;4;4;
64229;PMS5003;50547;49.498;0.092;2023-08-30T02:33:53;3;3;
64229;PMS5003;50547;49.498;0.092;2023-08-30T02:36:22;4;4;
64229;PMS5003;50547;49.498;0.092;2023-08-30T02:38:52;3;3;
64229;PMS5003;50547;49.498;0.092;2023-08-30T02:41:21;4;4;
64229;PMS5003;50547;49.498;0.092;2023-08-30T02:43:50;3;3;
64229;PMS5003;50547;49.498;0.092;2023-08-30T02:46:19;4;4;
64229;PMS5003;50547;49.498;0.092;2023-08-30T02:48:48;4;4;
64229;PMS5003;50547;49.498;0.092;2023-08-30T02:51:17;5;5;
64229;PMS5003;50547;49.498;0.092;2023-08-30T02:53:46;6;6;
64229;PMS5003;50547;49.498;0.092;2023-08-30T02:56:15;5;5;
64229;PMS5003;50547;49.498;0.092;2023-08-30T02:58:45;4;4;
64229;PMS5003;50547;49.498;0.092;2023-08-30T03:01:14;5;5;
64229;PMS5003;50547;49.498;0.092;2023-08-30T03:03:45;5;5;
64229;PMS5003;50547;49.498;0.092;2023-08-30T03:06:15;6;6;
64229;PMS5003;50547;49.498;0.092;2023-08-30T03:08:44;7;7;
64229;PMS5003;50547;49.498;0.092;2023-08-30T03:11:14;7;7;
64229;PMS5003;50547;49.498;0.092;2023-08-30T03:13:43;7;7;
64229;PMS5003;50547;49.498;0.092;2023-08-30T03:16:12;7;7;
64229;PMS5003;50547;49.498;0.092;2023-08-30T03:18:42;7;7;
64229;PMS5003;50547;49.498;0.092;2023-08-30T03:21:12;6;6;
64229;PMS5003;50547;49.498;0.092;2023-08-30T03:23:42;5;5;
64229;PMS5003;50547;49.498;0.092;2023-08-30T03:26:11;6;6;
64229;PMS5003;50547;49.498;0.092;2023-08-30T03:28:42;5;5;
64229;PMS5003;50547;49.498;0.092;2023-08-30T03:31:13;4;4;
64229;PMS5003;50547;49.498;0.092;2023-08-30T03:33:43;6;6;
64229;PMS5003;50547;49.498;0.092;2023-08-30T03:36:13;6;6;
64229;PMS5003;50547;49.498;0.092;2023-08-30T03:38:43;5;5;
64229;PMS5003;50547;49.498;0.092;2023-08-30T03:41:13;5;5;
64229;PMS5003;50547;49.498;0.092;2023-08-30T03:43:43;4;4;
64229;PMS5003;50547;49.498;0.092;2023-08-30T03:46:12;4;4;
64229;PMS5003;50547;49.498;0.092;2023-08-30T03:48:41;4;4;
64229;PMS5003;50547;49.498;0.092;2023-08-30T03:51:10;4;4;
64229;PMS5003;50547;49.498;0.092;2023-08-30T03:53:39;4;4;
64229;PMS5003;50547;49.498;0.092;2023-08-30T03:56:08;4;4;
64229;PMS5003;50547;49.498;0.092;2023-08-30T03:58:37;4;4;
64229;PMS5003;50547;49.498;0.092;2023-08-30T04:01:07;4;4;
64229;PMS5003;50547;49.498;0.092;2023-08-30T04:03:36;4;4;
64229;PMS5003;50547;49.498;0.092;2023-08-30T04:06:05;4;4;
64229;PMS5003;50547;49.498;0.092;2023-08-30T04:08:34;4;4;
64229;PMS5003;50547;49.498;0.092;2023-08-30T04:11:04;4;4;
64229;PMS5003;50547;49.498;0.092;2023-08-30T04:13:33;4;4;
64229;PMS5003;50547;49.498;0.092;2023-08-30T04:16:02;5;5;
64229;PMS5003;50547;49.498;0.092;2023-08-30T04:18:31;5;5;
64229;PMS5003;50547;49.498;0.092;2023-08-30T04:21:00;6;6;
64229;PMS5003;50547;49.498;0.092;2023-08-30T04:23:30;4;4;
64229;PMS5003;50547;49.498;0.092;2023-08-30T04:25:59;5;5;
64229;PMS5003;50547;49.498;0.092;2023-08-30T04:28:28;4;4;
64229;PMS5003;50547;49.498;0.092;2023-08-30T04:30:57;5;5;
64229;PMS5003;50547;49.498;0.092;2023-08-30T04:33:26;5;5;
64229;PMS5003;50547;49.498;0.092;2023-08-30T04:35:55;4;4;
64229;PMS5003;50547;49.498;0.092;2023-08-30T04:38:24;7;7;
64229;PMS5003;50547;49.498;0.092;2023-08-30T04:40:56;6;6;
64229;PMS5003;50547;49.498;0.092;2023-08-30T04:43:26;6;6;
64229;PMS5003;50547;49.498;0.092;2023-08-30T04:45:55;7;7;
64229;PMS5003;50547;49.498;0.092;2023-08-30T04:48:24;5;5;
64229;PMS5003;50547;49.498;0.092;2023-08-30T04:51:01;6;6;
64229;PMS5003;50547;49.498;0.092;2023-08-30T04:53:31;5;5;
64229;PMS5003;50547;49.498;0.092;2023-08-30T04:56:00;4;4;
64229;PMS5003;50547;49.498;0.092;2023-08-30T04:58:39;5;5;
64229;PMS5003;50547;49.498;0.092;2023-08-30T05:01:08;7;7;
64229;PMS5003;50547;49.498;0.092;2023-08-30T05:03:37;6;6;
64229;PMS5003;50547;49.498;0.092;2023-08-30T05:06:06;5;5;
64229;PMS5003;50547;49.498;0.092;2023-08-30T05:08:35;7;7;
64229;PMS5003;50547;49.498;0.092;2023-08-30T05:11:05;6;6;
64229;PMS5003;50547;49.498;0.092;2023-08-30T05:13:34;6;6;
64229;PMS5003;50547;49.498;0.092;2023-08-30T05:16:03;4;4;
64229;PMS5003;50547;49.498;0.092;2023-08-30T05:18:32;7;7;
64229;PMS5003;50547;49.498;0.092;2023-08-30T05:21:01;6;6;
64229;PMS5003;50547;49.498;0.092;2023-08-30T05:23:31;5;5;
64229;PMS5003;50547;49.498;0.092;2023-08-30T05:26:00;7;7;
64229;PMS5003;50547;49.498;0.092;2023-08-30T05:28:29;5;5;
64229;PMS5003;50547;49.498;0.092;2023-08-30T05:30:58;4;4;
64229;PMS5003;50547;49.498;0.092;2023-08-30T05:33:27;6;6;
64229;PMS5003;50547;49.498;0.092;2023-08-30T05:35:56;6;6;
64229;PMS5003;50547;49.498;0.092;2023-08-30T05:38:26;5;5;
64229;PMS5003;50547;49.498;0.092;2023-08-30T05:40:55;6;6;
64229;PMS5003;50547;49.498;0.092;2023-08-30T05:43:24;5;5;
64229;PMS5003;50547;49.498;0.092;2023-08-30T05:45:53;7;7;
64229;PMS5003;50547;49.498;0.092;2023-08-30T05:48:22;5;5;
64229;PMS5003;50547;49.498;0.092;2023-08-30T05:50:51;6;6;
64229;PMS5003;50547;49.498;0.092;2023-08-30T05:53:21;7;7;
64229;PMS5003;50547;49.498;0.092;2023-08-30T05:55:50;7;7;
64229;PMS5003;50547;49.498;0.092;2023-08-30T05:58:19;4;4;
64229;PMS5003;50547;49.498;0.092;2023-08-30T06:00:48;6;6;
64229;PMS5003;50547;49.498;0.092;2023-08-30T06:03:17;7;7;
64229;PMS5003;50547;49.498;0.092;2023-08-30T06:05:46;7;7;
64229;PMS5003;50547;49.498;0.092;2023-08-30T06:08:15;6;6;
64229;PMS5003;50547;49.498;0.092;2023-08-30T06:10:45;7;7;
64229;PMS5003;50547;49.498;0.092;2023-08-30T06:13:14;7;7;
64229;PMS5003;50547;49.498;0.092;2023-08-30T06:15:43;7;7;
64229;PMS5003;50547;49.498;0.092;2023-08-30T06:18:12;6;6;
64229;PMS5003;50547;49.498;0.092;2023-08-30T06:20:41;8;8;
64229;PMS5003;50547;49.498;0.092;2023-08-30T06:23:11;7;7;
64229;PMS5003;50547;49.498;0.092;2023-08-30T06:25:40;6;6;
64229;PMS5003;50547;49.498;0.092;2023-08-30T06:28:10;7;7;
64229;PMS5003;50547;49.498;0.092;2023-08-30T06:30:39;7;7;
64229;PMS5003;50547;49.498;0.092;2023-08-30T06:33:05;5;5;
64229;PMS5003;50547;49.498;0.092;2023-08-30T06:35:36;5;5;
64229;PMS5003;50547;49.498;0.092;2023-08-30T06:38:05;7;7;
64229;PMS5003;50547;49.498;0.092;2023-08-30T06:40:34;7;7;
64229;PMS5003;50547;49.498;0.092;2023-08-30T06:43:04;4;4;
64229;PMS5003;50547;49.498;0.092;2023-08-30T06:45:33;7;7;
64229;PMS5003;50547;49.498;0.092;2023-08-30T06:48:03;5;5;
64229;PMS5003;50547;49.498;0.092;2023-08-30T06:50:32;6;6;
64229;PMS5003;50547;49.498;0.092;2023-08-30T06:53:02;7;7;
64229;PMS5003;50547;49.498;0.092;2023-08-30T06:55:28;5;5;
64229;PMS5003;50547;49.498;0.092;2023-08-30T06:57:58;6;6;
64229;PMS5003;50547;49.498;0.092;2023-08-30T07:00:24;5;5;
64229;PMS5003;50547;49.498;0.092;2023-08-30T07:02:53;5;5;
64229;PMS5003;50547;49.498;0.092;2023-08-30T07:05:22;6;6;
64229;PMS5003;50547;49.498;0.092;2023-08-30T07:07:48;5;5;
64229;PMS5003;50547;49.498;0.092;2023-08-30T07:10:17;7;7;
64229;PMS5003;50547;49.498;0.092;2023-08-30T07:12:46;4;4;
64229;PMS5003;50547;49.498;0.092;2023-08-30T07:15:13;7;7;
64229;PMS5003;50547;49.498;0.092;2023-08-30T07:17:42;7;7;
64229;PMS5003;50547;49.498;0.092;2023-08-30T07:20:09;6;6;
64229;PMS5003;50547;49.498;0.092;2023-08-30T07:22:38;7;7;
64229;PMS5003;50547;49.498;0.092;2023-08-30T07:25:04;5;5;
64229;PMS5003;50547;49.498;0.092;2023-08-30T07:27:34;7;7;
64229;PMS5003;50547;49.498;0.092;2023-08-30T07:30:00;7;7;
64229;PMS5003;50547;49.498;0.092;2023-08-30T07:32:29;7;7;
64229;PMS5003;50547;49.498;0.092;2023-08-30T07:34:59;7;7;
64229;PMS5003;50547;49.498;0.092;2023-08-30T07:37:25;8;8;
64229;PMS5003;50547;49.498;0.092;2023-08-30T07:39:54;6;6;
64229;PMS5003;50547;49.498;0.092;2023-08-30T07:42:20;6;6;
64229;PMS5003;50547;49.498;0.092;2023-08-30T07:44:49;7;7;
64229;PMS5003;50547;49.498;0.092;2023-08-30T07:47:18;5;5;
64229;PMS5003;50547;49.498;0.092;2023-08-30T07:49:44;7;7;
64229;PMS5003;50547;49.498;0.092;2023-08-30T07:52:13;6;6;
64229;PMS5003;50547;49.498;0.092;2023-08-30T07:54:42;7;7;
64229;PMS5003;50547;49.498;0.092;2023-08-30T07:57:12;6;6;
64229;PMS5003;50547;49.498;0.092;2023-08-30T07:59:41;4;4;
64229;PMS5003;50547;49.498;0.092;2023-08-30T08:02:10;5;5;
64229;PMS5003;50547;49.498;0.092;2023-08-30T08:04:40;6;6;
64229;PMS5003;50547;49.498;0.092;2023-08-30T08:07:09;6;6;
64229;PMS5003;50547;49.498;0.092;2023-08-30T08:09:39;7;7;
64229;PMS5003;50547;49.498;0.092;2023-08-30T08:12:08;5;5;
64229;PMS5003;50547;49.498;0.092;2023-08-30T08:14:37;5;5;
64229;PMS5003;50547;49.498;0.092;2023-08-30T08:17:06;5;5;
64229;PMS5003;50547;49.498;0.092;2023-08-30T08:19:35;5;5;
64229;PMS5003;50547;49.498;0.092;2023-08-30T08:22:04;7;7;
64229;PMS5003;50547;49.498;0.092;2023-08-30T08:24:33;7;7;
64229;PMS5003;50547;49.498;0.092;2023-08-30T08:27:03;5;5;
64229;PMS5003;50547;49.498;0.092;2023-08-30T08:29:32;7;7;
64229;PMS5003;50547;49.498;0.092;2023-08-30T08:32:01;6;6;
64229;PMS5003;50547;49.498;0.092;2023-08-30T08:34:31;7;7;
64229;PMS5003;50547;49.498;0.092;2023-08-30T08:37:00;6;6;
64229;PMS5003;50547;49.498;0.092;2023-08-30T08:39:30;4;4;
64229;PMS5003;50547;49.498;0.092;2023-08-30T08:41:59;5;5;
64229;PMS5003;50547;49.498;0.092;2023-08-30T08:44:30;6;6;
64229;PMS5003;50547;49.498;0.092;2023-08-30T08:47:01;7;7;
64229;PMS5003;50547;49.498;0.092;2023-08-30T08:49:31;6;6;
64229;PMS5003;50547;49.498;0.092;2023-08-30T08:52:00;7;7;
64229;PMS5003;50547;49.498;0.092;2023-08-30T08:54:29;6;6;
64229;PMS5003;50547;49.498;0.092;2023-08-30T08:56:58;6;6;
64229;PMS5003;50547;49.498;0.092;2023-08-30T08:59:28;6;6;
64229;PMS5003;50547;49.498;0.092;2023-08-30T09:01:57;5;5;
64229;PMS5003;50547;49.498;0.092;2023-08-30T09:04:28;5;5;
64229;PMS5003;50547;49.498;0.092;2023-08-30T09:06:59;4;4;
64229;PMS5003;50547;49.498;0.092;2023-08-30T09:09:29;5;5;
64229;PMS5003;50547;49.498;0.092;2023-08-30T09:11:58;7;7;
64229;PMS5003;50547;49.498;0.092;2023-08-30T09:14:27;5;5;
64229;PMS5003;50547;49.498;0.092;2023-08-30T09:16:57;6;6;
64229;PMS5003;50547;49.498;0.092;2023-08-30T09:19:27;5;5;
64229;PMS5003;50547;49.498;0.092;2023-08-30T09:21:57;5;5;
64229;PMS5003;50547;49.498;0.092;2023-08-30T09:24:37;6;6;
64229;PMS5003;50547;49.498;0.092;2023-08-30T09:27:06;5;5;
64229;PMS5003;50547;49.498;0.092;2023-08-30T09:29:35;5;5;
64229;PMS5003;50547;49.498;0.092;2023-08-30T09:32:07;5;5;
64229;PMS5003;50547;49.498;0.092;2023-08-30T09:34:36;5;5;
64229;PMS5003;50547;49.498;0.092;2023-08-30T09:37:21;4;4;
64229;PMS5003;50547;49.498;0.092;2023-08-30T09:39:51;5;5;
64229;PMS5003;50547;49.498;0.092;2023-08-30T09:42:20;6;6;
64229;PMS5003;50547;49.498;0.092;2023-08-30T09:44:49;5;5;
64229;PMS5003;50547;49.498;0.092;2023-08-30T09:47:19;5;5;
64229;PMS5003;50547;49.498;0.092;2023-08-30T09:49:48;6;6;
64229;PMS5003;50547;49.498;0.092;2023-08-30T09:52:20;4;4;
64229;PMS5003;50547;49.498;0.092;2023-08-30T09:54:52;5;5;
64229;PMS5003;50547;49.498;0.092;2023-08-30T09:57:22;4;4;
64229;PMS5003;50547;49.498;0.092;2023-08-30T09:59:52;4;4;
64229;PMS5003;50547;49.498;0.092;2023-08-30T10:02:22;5;5;
64229;PMS5003;50547;49.498;0.092;2023-08-30T10:04:52;4;4;
64229;PMS5003;50547;49.498;0.092;2023-08-30T10:07:22;4;4;
64229;PMS5003;50547;49.498;0.092;2023-08-30T10:09:53;5;5;
64229;PMS5003;50547;49.498;0.092;2023-08-30T10:12:23;4;4;
64229;PMS5003;50547;49.498;0.092;2023-08-30T10:14:52;4;4;
64229;PMS5003;50547;49.498;0.092;2023-08-30T10:17:22;4;4;
64229;PMS5003;50547;49.498;0.092;2023-08-30T10:19:56;4;4;
64229;PMS5003;50547;49.498;0.092;2023-08-30T10:22:26;5;5;
64229;PMS5003;50547;49.498;0.092;2023-08-30T10:24:56;4;4;
64229;PMS5003;50547;49.498;0.092;2023-08-30T10:27:28;4;4;
64229;PMS5003;50547;49.498;0.092;2023-08-30T10:30:00;4;4;
64229;PMS5003;50547;49.498;0.092;2023-08-30T10:32:31;4;4;
64229;PMS5003;50547;49.498;0.092;2023-08-30T10:35:00;4;4;
64229;PMS5003;50547;49.498;0.092;2023-08-30T10:37:30;4;4;
64229;PMS5003;50547;49.498;0.092;2023-08-30T10:39:59;5;5;
64229;PMS5003;50547;49.498;0.092;2023-08-30T10:42:29;4;4;
64229;PMS5003;50547;49.498;0.092;2023-08-30T10:44:59;4;4;
64229;PMS5003;50547;49.498;0.092;2023-08-30T10:47:30;4;4;
64229;PMS5003;50547;49.498;0.092;2023-08-30T10:50:00;4;4;
64229;PMS5003;50547;49.498;0.092;2023-08-30T10:52:33;5;5;
64229;PMS5003;50547;49.498;0.092;2023-08-30T10:55:04;4;4;
64229;PMS5003;50547;49.498;0.092;2023-08-30T10:57:34;4;4;
64229;PMS5003;50547;49.498;0.092;2023-08-30T11:00:04;3;3;
64229;PMS5003;50547;49.498;0.092;2023-08-30T11:02:35;4;4;
64229;PMS5003;50547;49.498;0.092;2023-08-30T11:05:05;4;4;
64229;PMS5003;50547;49.498;0.092;2023-08-30T11:07:36;3;3;
64229;PMS5003;50547;49.498;0.092;2023-08-30T11:10:05;3;3;
64229;PMS5003;50547;49.498;0.092;2023-08-30T11:12:35;4;4;
64229;PMS5003;50547;49.498;0.092;2023-08-30T11:15:04;4;4;
64229;PMS5003;50547;49.498;0.092;2023-08-30T11:17:36;4;4;
64229;PMS5003;50547;49.498;0.092;2023-08-30T11:20:06;5;5;
64229;PMS5003;50547;49.498;0.092;2023-08-30T11:22:37;5;5;
64229;PMS5003;50547;49.498;0.092;2023-08-30T11:25:07;4;4;
64229;PMS5003;50547;49.498;0.092;2023-08-30T11:27:38;4;4;
64229;PMS5003;50547;49.498;0.092;2023-08-30T11:30:08;4;4;
64229;PMS5003;50547;49.498;0.092;2023-08-30T11:32:39;4;4;
64229;PMS5003;50547;49.498;0.092;2023-08-30T11:35:10;4;4;
64229;PMS5003;50547;49.498;0.092;2023-08-30T11:37:39;5;5;
64229;PMS5003;50547;49.498;0.092;2023-08-30T11:40:10;5;5;
64229;PMS5003;50547;49.498;0.092;2023-08-30T11:42:40;5;5;
64229;PMS5003;50547;49.498;0.092;2023-08-30T11:45:13;5;5;
64229;PMS5003;50547;49.498;0.092;2023-08-30T11:47:43;5;5;
64229;PMS5003;50547;49.498;0.092;2023-08-30T11:50:12;4;4;
64229;PMS5003;50547;49.498;0.092;2023-08-30T11:52:42;5;5;
64229;PMS5003;50547;49.498;0.092;2023-08-30T11:55:11;4;4;
64229;PMS5003;50547;49.498;0.092;2023-08-30T11:57:43;4;4;
64229;PMS5003;50547;49.498;0.092;2023-08-30T12:00:12;5;5;
64229;PMS5003;50547;49.498;0.092;2023-08-30T12:02:42;5;5;
64229;PMS5003;50547;49.498;0.092;2023-08-30T12:05:12;4;4;
64229;PMS5003;50547;49.498;0.092;2023-08-30T12:07:42;4;4;
64229;PMS5003;50547;49.498;0.092;2023-08-30T12:10:11;4;4;
64229;PMS5003;50547;49.498;0.092;2023-08-30T12:12:44;4;4;
64229;PMS5003;50547;49.498;0.092;2023-08-30T12:15:14;5;5;
64229;PMS5003;50547;49.498;0.092;2023-08-30T12:17:43;4;4;
64229;PMS5003;50547;49.498;0.092;2023-08-30T12:20:16;5;5;
64229;PMS5003;50547;49.498;0.092;2023-08-30T12:22:45;4;4;
64229;PMS5003;50547;49.498;0.092;2023-08-30T12:25:15;4;4;
64229;PMS5003;50547;49.498;0.092;2023-08-30T12:27:46;4;4;
64229;PMS5003;50547;49.498;0.092;2023-08-30T12:30:16;4;4;
64229;PMS5003;50547;49.498;0.092;2023-08-30T12:32:46;4;4;
64229;PMS5003;50547;49.498;0.092;2023-08-30T12:35:16;4;4;
64229;PMS5003;50547;49.498;0.092;2023-08-30T12:37:45;5;5;
64229;PMS5003;50547;49.498;0.092;2023-08-30T12:40:14;4;4;
64229;PMS5003;50547;49.498;0.092;2023-08-30T12:42:43;4;4;
64229;PMS5003;50547;49.498;0.092;2023-08-30T12:45:12;4;4;
64229;PMS5003;50547;49.498;0.092;2023-08-30T12:47:41;5;5;
64229;PMS5003;50547;49.498;0.092;2023-08-30T12:50:10;4;4;
64229;PMS5003;50547;49.498;0.092;2023-08-30T12:52:39;6;6;
64229;PMS5003;50547;49.498;0.092;2023-08-30T12:55:09;4;4;
64229;PMS5003;50547;49.498;0.092;2023-08-30T12:57:38;4;4;
64229;PMS5003;50547;49.498;0.092;2023-08-30T13:00:07;4;4;
64229;PMS5003;50547;49.498;0.092;2023-08-30T13:02:37;4;4;
64229;PMS5003;50547;49.498;0.092;2023-08-30T13:05:06;4;4;
64229;PMS5003;50547;49.498;0.092;2023-08-30T13:07:36;4;4;
64229;PMS5003;50547;49.498;0.092;2023-08-30T13:10:05;4;4;
64229;PMS5003;50547;49.498;0.092;2023-08-30T13:12:35;4;4;
64229;PMS5003;50547;49.498;0.092;2023-08-30T13:15:06;4;4;
64229;PMS5003;50547;49.498;0.092;2023-08-30T13:17:36;4;4;
64229;PMS5003;50547;49.498;0.092;2023-08-30T13:20:05;4;4;
64229;PMS5003;50547;49.498;0.092;2023-08-30T13:22:35;4;4;
64229;PMS5003;50547;49.498;0.092;2023-08-30T13:25:05;4;4;
64229;PMS5003;50547;49.498;0.092;2023-08-30T13:27:35;4;4;
64229;PMS5003;50547;49.498;0.092;2023-08-30T13:30:05;4;4;
64229;PMS5003;50547;49.498;0.092;2023-08-30T13:32:35;5;5;
64229;PMS5003;50547;49.498;0.092;2023-08-30T13:35:05;7;7;
64229;PMS5003;50547;49.498;0.092;2023-08-30T13:37:34;7;7;
64229;PMS5003;50547;49.498;0.092;2023-08-30T13:40:04;6;6;
64229;PMS5003;50547;49.498;0.092;2023-08-30T13:42:33;7;7;
64229;PMS5003;50547;49.498;0.092;2023-08-30T13:45:03;7;7;
64229;PMS5003;50547;49.498;0.092;2023-08-30T13:47:32;5;5;
64229;PMS5003;50547;49.498;0.092;2023-08-30T13:50:01;4;4;
64229;PMS5003;50547;49.498;0.092;2023-08-30T13:52:31;5;5;
64229;PMS5003;50547;49.498;0.092;2023-08-30T13:55:00;4;4;
64229;PMS5003;50547;49.498;0.092;2023-08-30T13:57:30;4;4;
64229;PMS5003;50547;49.498;0.092;2023-08-30T13:59:59;5;5;
64229;PMS5003;50547;49.498;0.092;2023-08-30T14:02:28;4;4;
64229;PMS5003;50547;49.498;0.092;2023-08-30T14:04:58;4;4;
64229;PMS5003;50547;49.498;0.092;2023-08-30T14:07:27;4;4;
64229;PMS5003;50547;49.498;0.092;2023-08-30T14:09:57;4;4;
64229;PMS5003;50547;49.498;0.092;2023-08-30T14:12:27;4;4;
64229;PMS5003;50547;49.498;0.092;2023-08-30T14:14:56;4;4;
64229;PMS5003;50547;49.498;0.092;2023-08-30T14:17:25;4;4;
64229;PMS5003;50547;49.498;0.092;2023-08-30T14:19:54;3;3;
64229;PMS5003;50547;49.498;0.092;2023-08-30T14:22:23;4;4;
64229;PMS5003;50547;49.498;0.092;2023-08-30T14:24:52;4;4;
64229;PMS5003;50547;49.498;0.092;2023-08-30T14:27:21;4;4;
64229;PMS5003;50547;49.498;0.092;2023-08-30T14:29:51;3;3;
64229;PMS5003;50547;49.498;0.092;2023-08-30T14:32:20;4;4;
64229;PMS5003;50547;49.498;0.092;2023-08-30T14:34:49;4;4;
64229;PMS5003;50547;49.498;0.092;2023-08-30T14:37:39;4;4;
64229;PMS5003;50547;49.498;0.092;2023-08-30T14:40:10;3;3;
64229;PMS5003;50547;49.498;0.092;2023-08-30T14:42:40;4;4;
64229;PMS5003;50547;49.498;0.092;2023-08-30T14:45:09;4;4;
64229;PMS5003;50547;49.498;0.092;2023-08-30T14:47:38;4;4;
64229;PMS5003;50547;49.498;0.092;2023-08-30T14:50:11;4;4;
64229;PMS5003;50547;49.498;0.092;2023-08-30T14:52:40;4;4;
64229;PMS5003;50547;49.498;0.092;2023-08-30T14:55:10;4;4;
64229;PMS5003;50547;49.498;0.092;2023-08-30T14:57:39;4;4;
64229;PMS5003;50547;49.498;0.092;2023-08-30T15:00:14;3;3;
64229;PMS5003;50547;49.498;0.092;2023-08-30T15:02:43;3;3;
64229;PMS5003;50547;49.498;0.092;2023-08-30T15:05:12;4;4;
64229;PMS5003;50547;49.498;0.092;2023-08-30T15:07:41;3;3;
64229;PMS5003;50547;49.498;0.092;2023-08-30T15:10:11;3;3;
64229;PMS5003;50547;49.498;0.092;2023-08-30T15:12:40;4;4;
64229;PMS5003;50547;49.498;0.092;2023-08-30T15:15:09;4;4;
64229;PMS5003;50547;49.498;0.092;2023-08-30T15:17:39;4;4;
64229;PMS5003;50547;49.498;0.092;2023-08-30T15:20:08;4;4;
64229;PMS5003;50547;49.498;0.092;2023-08-30T15:22:38;3;3;
64229;PMS5003;50547;49.498;0.092;2023-08-30T15:25:07;4;4;
64229;PMS5003;50547;49.498;0.092;2023-08-30T15:27:36;4;4;
64229;PMS5003;50547;49.498;0.092;2023-08-30T15:30:06;3;3;
64229;PMS5003;50547;49.498;0.092;2023-08-30T15:32:36;3;3;
64229;PMS5003;50547;49.498;0.092;2023-08-30T15:35:05;4;4;
64229;PMS5003;50547;49.498;0.092;2023-08-30T15:37:35;4;4;
64229;PMS5003;50547;49.498;0.092;2023-08-30T15:40:10;4;4;
64229;PMS5003;50547;49.498;0.092;2023-08-30T15:42:40;4;4;
64229;PMS5003;50547;49.498;0.092;2023-08-30T15:45:09;4;4;
64229;PMS5003;50547;49.498;0.092;2023-08-30T15:47:38;4;4;
64229;PMS5003;50547;49.498;0.092;2023-08-30T15:50:08;4;4;
64229;PMS5003;50547;49.498;0.092;2023-08-30T15:52:37;4;4;
64229;PMS5003;50547;49.498;0.092;2023-08-30T15:55:06;4;4;
64229;PMS5003;50547;49.498;0.092;2023-08-30T15:57:36;4;4;
64229;PMS5003;50547;49.498;0.092;2023-08-30T16:00:05;4;4;
64229;PMS5003;50547;49.498;0.092;2023-08-30T16:02:35;4;4;
64229;PMS5003;50547;49.498;0.092;2023-08-30T16:05:05;4;4;
64229;PMS5003;50547;49.498;0.092;2023-08-30T16:07:34;4;4;
64229;PMS5003;50547;49.498;0.092;2023-08-30T16:10:04;4;4;
64229;PMS5003;50547;49.498;0.092;2023-08-30T16:12:35;4;4;
64229;PMS5003;50547;49.498;0.092;2023-08-30T16:15:04;4;4;
64229;PMS5003;50547;49.498;0.092;2023-08-30T16:17:34;4;4;
64229;PMS5003;50547;49.498;0.092;2023-08-30T16:20:03;4;4;
64229;PMS5003;50547;49.498;0.092;2023-08-30T16:22:33;4;4;
64229;PMS5003;50547;49.498;0.092;2023-08-30T16:25:03;4;4;
64229;PMS5003;50547;49.498;0.092;2023-08-30T16:27:33;4;4;
64229;PMS5003;50547;49.498;0.092;2023-08-30T16:30:03;3;3;
64229;PMS5003;50547;49.498;0.092;2023-08-30T16:32:33;4;4;
64229;PMS5003;50547;49.498;0.092;2023-08-30T16:35:02;3;3;
64229;PMS5003;50547;49.498;0.092;2023-08-30T16:37:32;4;4;
64229;PMS5003;50547;49.498;0.092;2023-08-30T16:40:01;4;4;
64229;PMS5003;50547;49.498;0.092;2023-08-30T16:42:30;4;4;
64229;PMS5003;50547;49.498;0.092;2023-08-30T16:44:59;4;4;
64229;PMS5003;50547;49.498;0.092;2023-08-30T16:47:28;3;3;
64229;PMS5003;50547;49.498;0.092;2023-08-30T16:49:57;4;4;
64229;PMS5003;50547;49.498;0.092;2023-08-30T16:52:27;4;4;
64229;PMS5003;50547;49.498;0.092;2023-08-30T16:54:56;4;4;
64229;PMS5003;50547;49.498;0.092;2023-08-30T16:57:25;4;4;
64229;PMS5003;50547;49.498;0.092;2023-08-30T16:59:54;4;4;
64229;PMS5003;50547;49.498;0.092;2023-08-30T17:02:23;4;4;
64229;PMS5003;50547;49.498;0.092;2023-08-30T17:04:52;4;4;